Seabourn Odyssey — C6XC6 — position and weather

sailwx.info

Track history (hours):
 
Tides and Currents Weather Stations Pressure Air Temp Water Temp Dewpoint Dewpoint Depression Visibility Wind Speed Wind Dir Waves Ship Positions

Seabourn Odyssey

Last reported at 2019-Dec-15 03:55 UTC. Time now 2019-Dec-15 09:57 UTC.
Position N 18°03' W 063°17'.

Length 198 m; draft 6.7 m.

Type: Ship. MMSI: 309416000.

Date/timePositionNaut miles runAvg speedWind from/ knotsBaromVisibWave heightAir tempDewpointWater temp
2019-Dec-15 03:55N 18°03' W 063°17'813.4
2019-Dec-15 03:18N 18°00' W 063°09'511.4
2019-Dec-15 02:53N 18°00' W 063°03'1 0.4
2019-Dec-15 00:58N 18°01' W 063°03'0 0.0
2019-Dec-14 23:17N 18°01' W 063°03'0 0.0
2019-Dec-14 15:25N 18°01' W 063°03'0 0.0
2019-Dec-14 14:55N 18°01' W 063°03'0 0.0
2019-Dec-14 14:25N 18°01' W 063°03'0 0.0
2019-Dec-14 12:25N 18°01' W 063°03'0 0.0
2019-Dec-14 10:28N 18°01' W 063°03'3 3.5
2019-Dec-14 09:29N 17°58' W 063°05'17 6.7
2019-Dec-14 07:00N 17°41' W 063°07'4 7.2
2019-Dec-14 06:29N 17°38' W 063°07'3 6.9
2019-Dec-14 06:00N 17°34' W 063°08'43 1.8
2019-Dec-13 06:37N 17°00' W 062°41'10 0.3
2019-Dec-12 00:02N 16°58' W 062°50'1 7.0
2019-Dec-11 23:55N 16°59' W 062°51'11 0.8
2019-Dec-11 10:32N 17°06' W 062°42'  
Track history (hours):
 
Tides and Currents Weather Stations Pressure Air Temp Water Temp Dewpoint Dewpoint Depression Visibility Wind Speed Wind Dir Waves Ship Positions

Seabourn Odyssey

Last reported at 2019-Dec-15 03:55 UTC. Time now 2019-Dec-15 09:57 UTC.
Position N 18°03' W 063°17'.

Length 198 m; draft 6.7 m.

Type: Ship. MMSI: 309416000.

Date/timePositionNaut miles runAvg speedWind from/ knotsBaromVisibWave heightAir tempDewpointWater temp
2019-Dec-15 03:55N 18°03' W 063°17'813.4
2019-Dec-15 03:18N 18°00' W 063°09'511.4
2019-Dec-15 02:53N 18°00' W 063°03'1 0.4
2019-Dec-15 00:58N 18°01' W 063°03'0 0.0
2019-Dec-14 23:17N 18°01' W 063°03'0 0.0
2019-Dec-14 15:25N 18°01' W 063°03'0 0.0
2019-Dec-14 14:55N 18°01' W 063°03'0 0.0
2019-Dec-14 14:25N 18°01' W 063°03'0 0.0
2019-Dec-14 12:25N 18°01' W 063°03'0 0.0
2019-Dec-14 10:28N 18°01' W 063°03'3 3.5
2019-Dec-14 09:29N 17°58' W 063°05'17 6.7
2019-Dec-14 07:00N 17°41' W 063°07'4 7.2
2019-Dec-14 06:29N 17°38' W 063°07'3 6.9
2019-Dec-14 06:00N 17°34' W 063°08'43 1.8
2019-Dec-13 06:37N 17°00' W 062°41'10 0.3
2019-Dec-12 00:02N 16°58' W 062°50'1 7.0
2019-Dec-11 23:55N 16°59' W 062°51'11 0.8
2019-Dec-11 10:32N 17°06' W 062°42'  

Dump ship's entire track history